createdAt,value
2017-05-31T00:00:27.414Z,16.00
2017-05-31T00:01:28.873Z,15.99
2017-05-31T00:02:30.352Z,15.94
2017-05-31T00:03:31.815Z,15.93
2017-05-31T00:04:33.268Z,15.89
2017-05-31T00:05:34.723Z,15.96
2017-05-31T00:06:36.179Z,15.93
2017-05-31T00:07:37.640Z,15.99
2017-05-31T00:08:39.097Z,16.00
2017-05-31T00:09:40.562Z,15.88
2017-05-31T00:10:42.018Z,15.84
2017-05-31T00:11:43.481Z,15.75
2017-05-31T00:12:44.934Z,15.79
2017-05-31T00:13:46.394Z,15.84
2017-05-31T00:14:47.854Z,15.70
2017-05-31T00:15:49.310Z,15.66
2017-05-31T00:16:50.779Z,15.75
2017-05-31T00:17:52.231Z,15.70
2017-05-31T00:18:53.684Z,15.64
2017-05-31T00:19:55.143Z,15.74
2017-05-31T00:20:56.602Z,15.63
2017-05-31T00:21:58.078Z,15.56
2017-05-31T00:22:59.534Z,15.60
2017-05-31T00:24:00.988Z,15.66
2017-05-31T00:25:02.466Z,15.67
2017-05-31T00:26:03.933Z,15.75
2017-05-31T00:27:05.387Z,15.49
2017-05-31T00:28:06.847Z,15.31
2017-05-31T00:29:08.323Z,15.28
2017-05-31T00:30:09.788Z,15.57
2017-05-31T00:31:11.243Z,15.64
2017-05-31T00:32:12.695Z,15.61
2017-05-31T00:33:14.176Z,15.61
2017-05-31T00:34:15.639Z,15.74
2017-05-31T00:35:17.096Z,15.67
2017-05-31T00:36:18.565Z,15.54
2017-05-31T00:37:20.016Z,15.54
2017-05-31T00:38:21.468Z,15.61
2017-05-31T00:39:22.928Z,15.57
2017-05-31T00:40:24.389Z,15.75
2017-05-31T00:41:25.843Z,15.66
2017-05-31T00:42:27.307Z,15.57
2017-05-31T00:43:28.773Z,15.43
2017-05-31T00:44:30.227Z,15.48
2017-05-31T00:45:31.691Z,15.52
2017-05-31T00:46:33.340Z,15.56
2017-05-31T00:47:34.808Z,15.52
2017-05-31T00:48:36.302Z,15.46
2017-05-31T00:49:37.761Z,15.45
2017-05-31T00:50:39.212Z,15.36
2017-05-31T00:51:40.669Z,15.42
2017-05-31T00:52:42.127Z,15.35
2017-05-31T00:53:43.592Z,15.43
2017-05-31T00:54:45.057Z,15.38
2017-05-31T00:55:46.523Z,15.45
2017-05-31T00:56:47.997Z,15.36
2017-05-31T00:57:49.456Z,15.46
2017-05-31T00:58:50.952Z,15.41
2017-05-31T00:59:52.598Z,15.41
2017-05-31T01:00:54.055Z,15.38
2017-05-31T01:01:55.519Z,15.36
2017-05-31T01:02:56.975Z,15.23
2017-05-31T01:03:58.438Z,15.31
2017-05-31T01:04:59.900Z,15.38
2017-05-31T01:06:01.363Z,15.38
2017-05-31T01:07:02.811Z,15.30
2017-05-31T01:08:04.273Z,15.24
2017-05-31T01:09:05.730Z,15.36
2017-05-31T01:10:07.189Z,15.27
2017-05-31T01:11:08.662Z,15.31
2017-05-31T01:12:10.122Z,15.28
2017-05-31T01:13:11.573Z,15.33
2017-05-31T01:14:13.040Z,15.19
2017-05-31T01:15:14.498Z,15.27
2017-05-31T01:16:15.955Z,15.35
2017-05-31T01:17:17.406Z,15.24
2017-05-31T01:18:18.860Z,15.11
2017-05-31T01:19:20.318Z,15.23
2017-05-31T01:20:21.806Z,15.15
2017-05-31T01:21:23.262Z,15.05
2017-05-31T01:22:24.731Z,14.98
2017-05-31T01:23:26.192Z,15.01
2017-05-31T01:24:27.650Z,15.12
2017-05-31T01:25:29.157Z,14.94
2017-05-31T01:26:30.571Z,15.06
2017-05-31T01:27:32.035Z,15.06
2017-05-31T01:28:33.486Z,14.95
2017-05-31T01:29:34.949Z,14.87
2017-05-31T01:30:36.401Z,14.95
2017-05-31T01:31:37.862Z,14.90
2017-05-31T01:32:39.342Z,14.90
2017-05-31T01:33:40.801Z,14.83
2017-05-31T01:34:42.264Z,14.90
2017-05-31T01:35:43.721Z,14.95
2017-05-31T01:36:45.179Z,14.95
2017-05-31T01:37:46.629Z,14.99
2017-05-31T01:38:48.100Z,14.83
2017-05-31T01:39:49.549Z,14.87
2017-05-31T01:40:51.009Z,14.98
2017-05-31T01:41:52.474Z,14.94
2017-05-31T01:42:53.932Z,14.95
2017-05-31T01:43:55.382Z,15.03
2017-05-31T01:44:56.836Z,15.05
2017-05-31T01:45:58.289Z,15.01
2017-05-31T01:46:59.747Z,15.02
2017-05-31T01:48:01.203Z,15.06
2017-05-31T01:49:02.665Z,15.03
2017-05-31T01:50:04.141Z,14.94
2017-05-31T01:51:05.596Z,14.99
2017-05-31T01:52:07.051Z,15.01
2017-05-31T01:53:08.507Z,14.94
2017-05-31T01:54:09.971Z,14.99
2017-05-31T01:55:11.427Z,14.88
2017-05-31T01:56:12.892Z,14.87
2017-05-31T01:57:14.344Z,14.86
2017-05-31T01:58:15.807Z,14.81
2017-05-31T01:59:17.256Z,14.86
2017-05-31T02:00:18.711Z,14.72
2017-05-31T02:01:20.174Z,14.84
2017-05-31T02:02:21.635Z,14.81
2017-05-31T02:03:23.091Z,14.84
2017-05-31T02:04:24.543Z,14.83
2017-05-31T02:05:26.001Z,14.84
2017-05-31T02:06:27.468Z,14.90
2017-05-31T02:07:28.927Z,15.02
2017-05-31T02:08:30.381Z,14.81
2017-05-31T02:09:31.850Z,14.74
2017-05-31T02:10:33.299Z,14.81
2017-05-31T02:11:34.752Z,14.83
2017-05-31T02:12:36.219Z,14.62
2017-05-31T02:13:37.670Z,14.62
2017-05-31T02:14:39.125Z,14.67
2017-05-31T02:15:40.591Z,14.65
2017-05-31T02:16:42.061Z,14.78
2017-05-31T02:17:43.517Z,14.72
2017-05-31T02:18:44.968Z,14.74
2017-05-31T02:19:46.422Z,14.72
2017-05-31T02:20:47.911Z,14.69
2017-05-31T02:21:49.367Z,14.87
2017-05-31T02:22:50.829Z,14.83
2017-05-31T02:23:52.277Z,14.72
2017-05-31T02:24:53.735Z,14.83
2017-05-31T02:25:55.201Z,14.86
2017-05-31T02:26:56.664Z,14.84
2017-05-31T02:27:58.118Z,14.81
2017-05-31T02:28:59.570Z,14.74
2017-05-31T02:30:01.025Z,14.74
2017-05-31T02:31:02.481Z,14.64
2017-05-31T02:32:03.940Z,14.78
2017-05-31T02:33:05.393Z,14.74
2017-05-31T02:34:06.852Z,14.71
2017-05-31T02:35:08.335Z,14.60
2017-05-31T02:36:09.834Z,14.64
2017-05-31T02:37:11.287Z,14.54
2017-05-31T02:38:12.752Z,14.62
2017-05-31T02:39:14.226Z,14.69
2017-05-31T02:40:15.687Z,14.74
2017-05-31T02:41:17.151Z,14.68
2017-05-31T02:42:18.722Z,14.81
2017-05-31T02:43:20.169Z,14.78
2017-05-31T02:44:21.638Z,14.69
2017-05-31T02:45:23.116Z,14.91
2017-05-31T02:46:24.638Z,14.90
2017-05-31T02:47:26.092Z,14.94
2017-05-31T02:48:27.549Z,14.95
2017-05-31T02:49:29.018Z,14.93
2017-05-31T02:50:30.473Z,15.02
2017-05-31T02:51:31.934Z,15.15
2017-05-31T02:52:33.395Z,15.12
2017-05-31T02:53:34.864Z,15.02
2017-05-31T02:54:36.320Z,15.15
2017-05-31T02:55:37.773Z,15.09
2017-05-31T02:56:39.243Z,15.11
2017-05-31T02:57:40.724Z,15.02
2017-05-31T02:58:42.156Z,15.13
2017-05-31T02:59:43.614Z,15.24
2017-05-31T03:00:45.081Z,15.13
2017-05-31T03:01:46.543Z,15.15
2017-05-31T03:02:47.993Z,15.19
2017-05-31T03:03:49.507Z,15.13
2017-05-31T03:04:50.915Z,15.21
2017-05-31T03:05:52.379Z,15.19
2017-05-31T03:06:53.832Z,15.08
2017-05-31T03:07:55.342Z,14.99
2017-05-31T03:08:56.800Z,15.08
2017-05-31T03:09:58.251Z,14.91
2017-05-31T03:10:59.712Z,14.99
2017-05-31T03:12:01.206Z,15.02
2017-05-31T03:13:02.659Z,15.02
2017-05-31T03:14:04.121Z,15.09
2017-05-31T03:15:05.579Z,15.09
2017-05-31T03:16:08.944Z,15.01
2017-05-31T03:17:10.412Z,15.06
2017-05-31T03:18:11.893Z,15.01
2017-05-31T03:19:13.342Z,14.87
2017-05-31T03:20:14.798Z,15.01
2017-05-31T03:21:16.263Z,15.01
2017-05-31T03:22:17.734Z,14.95
2017-05-31T03:23:19.192Z,14.84
2017-05-31T03:24:20.741Z,14.88
2017-05-31T03:25:22.207Z,14.86
2017-05-31T03:26:23.663Z,14.86
2017-05-31T03:27:25.121Z,14.86
2017-05-31T03:28:26.587Z,14.83
2017-05-31T03:29:28.043Z,14.83
2017-05-31T03:30:29.497Z,14.81
2017-05-31T03:31:30.955Z,14.69
2017-05-31T03:32:32.419Z,14.78
2017-05-31T03:33:33.882Z,14.81
2017-05-31T03:34:35.339Z,14.83
2017-05-31T03:35:36.798Z,14.84
2017-05-31T03:36:38.259Z,14.72
2017-05-31T03:37:39.724Z,14.72
2017-05-31T03:38:41.186Z,14.74
2017-05-31T03:39:42.648Z,14.74
2017-05-31T03:40:44.102Z,14.80
2017-05-31T03:41:45.573Z,14.74
2017-05-31T03:42:47.036Z,14.74
2017-05-31T03:43:48.500Z,14.71
2017-05-31T03:44:49.997Z,14.61
2017-05-31T03:45:51.462Z,14.57
2017-05-31T03:46:52.925Z,14.65
2017-05-31T03:47:54.391Z,14.62
2017-05-31T03:48:55.852Z,14.62
2017-05-31T03:49:57.315Z,14.62
2017-05-31T03:50:58.793Z,14.62
2017-05-31T03:52:00.256Z,14.56
2017-05-31T03:53:01.721Z,14.65
2017-05-31T03:54:03.243Z,14.64
2017-05-31T03:55:04.605Z,14.67
2017-05-31T03:56:06.803Z,14.71
2017-05-31T03:57:08.264Z,14.72
2017-05-31T03:58:09.728Z,14.80
2017-05-31T03:59:11.186Z,14.69
2017-05-31T04:00:12.640Z,14.87
2017-05-31T04:01:14.101Z,14.88
2017-05-31T04:02:15.564Z,14.87
2017-05-31T04:03:17.029Z,14.84
2017-05-31T04:04:18.491Z,14.93
2017-05-31T04:05:19.952Z,14.98
2017-05-31T04:06:21.411Z,15.01
2017-05-31T04:07:22.873Z,14.83
2017-05-31T04:08:24.340Z,14.83
2017-05-31T04:09:25.799Z,14.86
2017-05-31T04:10:27.269Z,14.87
2017-05-31T04:11:28.723Z,14.87
2017-05-31T04:12:30.236Z,14.83
2017-05-31T04:13:31.650Z,14.90
2017-05-31T04:14:33.124Z,14.83
2017-05-31T04:15:34.582Z,14.75
2017-05-31T04:16:36.042Z,14.65
2017-05-31T04:17:37.508Z,14.69
2017-05-31T04:18:38.970Z,14.74
2017-05-31T04:19:40.435Z,14.74
2017-05-31T04:20:41.899Z,14.83
2017-05-31T04:21:43.366Z,14.81
2017-05-31T04:22:44.830Z,14.87
2017-05-31T04:23:46.290Z,14.84
2017-05-31T04:24:47.770Z,14.87
2017-05-31T04:25:49.233Z,14.86
2017-05-31T04:26:50.706Z,14.86
2017-05-31T04:27:52.171Z,14.72
2017-05-31T04:28:53.631Z,14.72
2017-05-31T04:29:55.098Z,14.86
2017-05-31T04:30:56.556Z,15.08
2017-05-31T04:31:58.016Z,15.21
2017-05-31T04:32:59.485Z,15.27
2017-05-31T04:34:00.952Z,15.59
2017-05-31T04:35:02.408Z,15.52
2017-05-31T04:36:03.879Z,15.66
2017-05-31T04:37:05.344Z,15.79
2017-05-31T04:38:06.806Z,15.93
2017-05-31T04:39:08.269Z,15.89
2017-05-31T04:40:09.736Z,15.84
2017-05-31T04:41:11.205Z,15.86
2017-05-31T04:42:12.672Z,15.86
2017-05-31T04:43:14.146Z,16.07
2017-05-31T04:44:15.607Z,16.18
2017-05-31T04:45:17.067Z,16.42
2017-05-31T04:46:18.547Z,16.68
2017-05-31T04:47:20.022Z,16.77
2017-05-31T04:48:21.493Z,17.03
2017-05-31T04:49:22.954Z,16.80
2017-05-31T04:50:24.417Z,16.99
2017-05-31T04:51:25.886Z,17.18
2017-05-31T04:52:27.341Z,16.98
2017-05-31T04:53:28.812Z,16.96
2017-05-31T04:54:30.274Z,17.30
2017-05-31T04:55:31.736Z,17.18
2017-05-31T04:56:33.215Z,16.62
2017-05-31T04:57:34.676Z,16.81
2017-05-31T04:58:36.145Z,16.73
2017-05-31T04:59:37.605Z,16.85
2017-05-31T05:00:39.084Z,16.89
2017-05-31T05:01:40.552Z,16.96
2017-05-31T05:02:42.020Z,17.17
2017-05-31T05:03:43.494Z,17.30
2017-05-31T05:04:44.955Z,17.38
2017-05-31T05:05:46.440Z,17.51
2017-05-31T05:06:47.907Z,17.87
2017-05-31T05:07:49.396Z,18.15
2017-05-31T05:08:50.854Z,19.05
2017-05-31T05:09:52.322Z,19.01
2017-05-31T05:10:53.796Z,19.08
2017-05-31T05:11:55.261Z,19.18
2017-05-31T05:12:56.753Z,18.86
2017-05-31T05:13:58.224Z,18.91
2017-05-31T05:14:59.697Z,18.87
2017-05-31T05:16:01.170Z,18.80
2017-05-31T05:17:02.648Z,18.52
2017-05-31T05:18:04.159Z,18.72
2017-05-31T05:19:05.627Z,18.02
2017-05-31T05:20:07.094Z,18.00
2017-05-31T05:21:08.568Z,17.71
2017-05-31T05:22:10.032Z,17.44
2017-05-31T05:23:11.500Z,17.48
2017-05-31T05:24:12.968Z,17.87
2017-05-31T05:25:14.435Z,18.34
2017-05-31T05:26:15.907Z,18.83
2017-05-31T05:27:17.373Z,19.08
2017-05-31T05:28:18.843Z,19.33
2017-05-31T05:29:20.312Z,18.97
2017-05-31T05:30:21.784Z,18.49
2017-05-31T05:31:23.269Z,18.33
2017-05-31T05:32:24.744Z,18.65
2017-05-31T05:33:26.215Z,19.25
2017-05-31T05:34:27.685Z,19.60
2017-05-31T05:35:29.168Z,19.83
2017-05-31T05:36:30.649Z,20.06
2017-05-31T05:37:32.115Z,19.58
2017-05-31T05:38:33.589Z,18.83
2017-05-31T05:39:35.065Z,18.92
2017-05-31T05:40:36.544Z,19.08
2017-05-31T05:41:38.011Z,19.23
2017-05-31T05:42:39.490Z,19.08
2017-05-31T05:43:40.974Z,18.91
2017-05-31T05:44:42.444Z,18.97
2017-05-31T05:45:43.913Z,19.24
2017-05-31T05:46:45.393Z,19.54
2017-05-31T05:47:46.874Z,19.68
2017-05-31T05:48:48.348Z,19.42
2017-05-31T05:49:49.821Z,19.18
2017-05-31T05:50:51.286Z,18.95
2017-05-31T05:51:52.761Z,19.21
2017-05-31T05:52:54.260Z,19.57
2017-05-31T05:53:55.733Z,19.66
2017-05-31T05:54:57.205Z,19.91
2017-05-31T05:55:58.695Z,19.95
2017-05-31T05:57:00.165Z,19.97
2017-05-31T05:58:01.641Z,19.78
2017-05-31T05:59:03.121Z,19.23
2017-05-31T06:00:04.594Z,19.40
2017-05-31T06:01:06.090Z,19.15
2017-05-31T06:02:07.561Z,19.57
2017-05-31T06:03:09.023Z,20.20
2017-05-31T06:04:10.502Z,20.06
2017-05-31T06:05:11.967Z,20.50
2017-05-31T06:06:13.444Z,20.77
2017-05-31T06:07:14.927Z,21.19
2017-05-31T06:08:16.393Z,20.64
2017-05-31T06:09:17.875Z,20.28
2017-05-31T06:10:19.348Z,19.95
2017-05-31T06:11:20.819Z,19.58
2017-05-31T06:12:22.303Z,20.08
2017-05-31T06:13:23.790Z,20.53
2017-05-31T06:14:25.267Z,20.77
2017-05-31T06:15:26.735Z,21.02
2017-05-31T06:16:28.213Z,21.35
2017-05-31T06:17:29.681Z,20.84
2017-05-31T06:18:31.163Z,21.06
2017-05-31T06:19:32.640Z,20.64
2017-05-31T06:20:34.113Z,20.33
2017-05-31T06:21:35.590Z,20.30
2017-05-31T06:22:37.066Z,20.51
2017-05-31T06:23:38.548Z,21.14
2017-05-31T06:24:40.028Z,20.68
2017-05-31T06:25:41.510Z,20.74
2017-05-31T06:26:42.985Z,21.13
2017-05-31T06:27:44.460Z,20.98
2017-05-31T06:28:45.940Z,20.96
2017-05-31T06:29:47.413Z,21.21
2017-05-31T06:30:48.885Z,21.64
2017-05-31T06:31:50.355Z,21.63
2017-05-31T06:32:51.824Z,21.45
2017-05-31T06:33:53.314Z,21.95
2017-05-31T06:34:54.791Z,21.82
2017-05-31T06:35:56.268Z,22.31
2017-05-31T06:36:57.745Z,22.67
2017-05-31T06:37:59.254Z,22.65
2017-05-31T06:39:00.729Z,22.32
2017-05-31T06:40:02.235Z,22.60
2017-05-31T06:41:03.709Z,22.14
2017-05-31T06:42:05.180Z,22.37
2017-05-31T06:43:06.665Z,22.44
2017-05-31T06:44:08.149Z,21.74
2017-05-31T06:45:09.622Z,21.63
2017-05-31T06:46:11.122Z,22.23
2017-05-31T06:47:12.601Z,22.64
2017-05-31T06:48:14.080Z,22.49
2017-05-31T06:49:15.554Z,22.53
2017-05-31T06:50:17.029Z,22.34
2017-05-31T06:51:18.510Z,22.53
2017-05-31T06:52:20.005Z,22.72
2017-05-31T06:53:21.480Z,22.93
2017-05-31T06:54:22.964Z,22.99
2017-05-31T06:55:24.480Z,23.52
2017-05-31T06:56:25.968Z,23.58
2017-05-31T06:57:27.458Z,23.47
2017-05-31T06:58:28.957Z,23.60
2017-05-31T06:59:30.439Z,23.43
2017-05-31T07:00:31.930Z,22.94
2017-05-31T07:01:33.414Z,23.32
2017-05-31T07:02:34.891Z,22.83
2017-05-31T07:03:36.369Z,23.07
2017-05-31T07:04:37.845Z,23.76
2017-05-31T07:05:39.324Z,23.95
2017-05-31T07:06:40.804Z,23.14
2017-05-31T07:07:42.291Z,23.64
2017-05-31T07:08:43.778Z,23.47
2017-05-31T07:09:45.263Z,24.53
2017-05-31T07:10:46.737Z,24.39
2017-05-31T07:11:48.221Z,25.05
2017-05-31T07:12:49.733Z,24.53
2017-05-31T07:13:51.211Z,24.29
2017-05-31T07:14:52.697Z,23.77
2017-05-31T07:15:54.175Z,23.76
2017-05-31T07:16:55.671Z,23.68
2017-05-31T07:17:57.152Z,23.85
2017-05-31T07:18:58.629Z,23.85
2017-05-31T07:20:00.104Z,23.76
2017-05-31T07:21:01.609Z,23.85
2017-05-31T07:22:03.084Z,23.80
2017-05-31T07:23:04.566Z,24.47
2017-05-31T07:24:06.045Z,25.32
2017-05-31T07:25:07.517Z,25.38
2017-05-31T07:26:09.002Z,24.83
2017-05-31T07:27:10.477Z,25.35
2017-05-31T07:28:11.952Z,25.46
2017-05-31T07:29:13.426Z,24.97
2017-05-31T07:30:14.909Z,25.00
2017-05-31T07:31:16.391Z,25.67
2017-05-31T07:32:17.867Z,25.67
2017-05-31T07:33:19.348Z,25.07
2017-05-31T07:34:20.977Z,24.47
2017-05-31T07:35:22.367Z,24.16
2017-05-31T07:36:23.858Z,24.59
2017-05-31T07:37:25.334Z,24.29
2017-05-31T07:38:26.827Z,25.10
2017-05-31T07:39:28.313Z,25.68
2017-05-31T07:40:29.792Z,25.28
2017-05-31T07:41:31.288Z,25.61
2017-05-31T07:42:32.761Z,24.47
2017-05-31T07:43:34.242Z,23.95
2017-05-31T07:44:35.726Z,24.32
2017-05-31T07:45:37.214Z,24.38
2017-05-31T07:46:38.689Z,25.05
2017-05-31T07:47:40.188Z,25.39
2017-05-31T07:48:41.676Z,26.27
2017-05-31T07:49:43.173Z,26.24
2017-05-31T07:50:44.626Z,25.42
2017-05-31T07:51:46.106Z,24.56
2017-05-31T07:52:47.620Z,25.01
2017-05-31T07:53:49.109Z,24.82
2017-05-31T07:54:50.594Z,25.64
2017-05-31T07:55:52.074Z,26.24
2017-05-31T07:56:53.566Z,26.77
2017-05-31T07:57:55.042Z,26.81
2017-05-31T07:58:56.519Z,25.44
2017-05-31T07:59:58.011Z,25.47
2017-05-31T08:00:59.524Z,25.84
2017-05-31T08:02:01.003Z,26.89
2017-05-31T08:03:02.477Z,24.59
2017-05-31T08:04:03.957Z,23.95
2017-05-31T08:05:05.439Z,24.08
2017-05-31T08:06:06.919Z,24.98
2017-05-31T08:07:08.391Z,25.52
2017-05-31T08:08:09.873Z,26.29
2017-05-31T08:09:11.355Z,25.94
2017-05-31T08:10:12.831Z,26.89
2017-05-31T08:11:14.365Z,28.38
2017-05-31T08:12:15.741Z,27.89
2017-05-31T08:13:17.248Z,26.47
2017-05-31T08:14:18.720Z,26.21
2017-05-31T08:15:20.205Z,25.69
2017-05-31T08:16:21.690Z,25.19
2017-05-31T08:17:23.183Z,25.79
2017-05-31T08:18:24.662Z,26.32
2017-05-31T08:19:26.147Z,26.32
2017-05-31T08:20:27.628Z,26.08
2017-05-31T08:21:29.113Z,26.42
2017-05-31T08:22:30.600Z,25.71
2017-05-31T08:23:32.086Z,25.20
2017-05-31T08:24:33.563Z,23.90
2017-05-31T08:25:35.041Z,23.05
2017-05-31T08:26:36.515Z,22.99
2017-05-31T08:27:37.991Z,23.07
2017-05-31T08:28:39.481Z,23.97
2017-05-31T08:29:40.962Z,24.20
2017-05-31T08:30:42.455Z,24.59
2017-05-31T08:31:43.931Z,25.25
2017-05-31T08:32:45.402Z,26.27
2017-05-31T08:33:46.879Z,26.74
2017-05-31T08:34:48.359Z,27.21
2017-05-31T08:35:49.835Z,26.22
2017-05-31T08:36:51.325Z,25.64
2017-05-31T08:37:52.801Z,25.13
2017-05-31T08:38:54.298Z,26.24
2017-05-31T08:39:55.772Z,27.39
2017-05-31T08:40:57.246Z,26.52
2017-05-31T08:41:58.724Z,25.82
2017-05-31T08:43:00.221Z,24.79
2017-05-31T08:44:01.709Z,23.97
2017-05-31T08:45:03.198Z,24.95
2017-05-31T08:46:07.460Z,25.64
2017-05-31T08:47:08.938Z,25.56
2017-05-31T08:48:10.417Z,25.31
2017-05-31T08:49:11.898Z,25.07
2017-05-31T08:50:13.373Z,24.17
2017-05-31T08:51:14.849Z,23.72
2017-05-31T08:52:16.333Z,24.07
2017-05-31T08:53:17.808Z,24.56
2017-05-31T08:54:19.286Z,24.39
2017-05-31T08:55:20.760Z,24.69
2017-05-31T08:56:22.316Z,25.82
2017-05-31T08:57:23.796Z,26.44
2017-05-31T08:58:25.275Z,25.15
2017-05-31T08:59:26.751Z,24.44
2017-05-31T09:00:28.262Z,24.71
2017-05-31T09:01:29.730Z,25.01
2017-05-31T09:02:31.203Z,25.35
2017-05-31T09:03:32.681Z,25.30
2017-05-31T09:04:34.152Z,24.94
2017-05-31T09:05:35.638Z,24.79
2017-05-31T09:06:37.114Z,24.77
2017-05-31T09:07:38.585Z,25.13
2017-05-31T09:08:40.065Z,25.71
2017-05-31T09:09:41.549Z,25.52
2017-05-31T09:10:43.037Z,25.71
2017-05-31T09:11:44.513Z,25.68
2017-05-31T09:12:45.995Z,24.54
2017-05-31T09:13:47.472Z,23.76
2017-05-31T09:14:48.943Z,23.22
2017-05-31T09:15:50.415Z,23.34
2017-05-31T09:16:51.887Z,23.68
2017-05-31T09:17:53.365Z,23.39
2017-05-31T09:18:54.836Z,23.29
2017-05-31T09:19:56.311Z,23.14
2017-05-31T09:20:57.788Z,23.58
2017-05-31T09:21:59.273Z,23.46
2017-05-31T09:23:00.741Z,23.38
2017-05-31T09:24:02.219Z,23.39
2017-05-31T09:25:03.689Z,23.68
2017-05-31T09:26:05.175Z,24.08
2017-05-31T09:27:06.645Z,24.76
2017-05-31T09:28:08.118Z,25.61
2017-05-31T09:29:09.590Z,25.90
2017-05-31T09:30:11.079Z,25.34
2017-05-31T09:31:12.553Z,24.68
2017-05-31T09:32:14.026Z,24.35
2017-05-31T09:33:15.512Z,23.77
2017-05-31T09:34:16.985Z,23.04
2017-05-31T09:35:18.456Z,23.38
2017-05-31T09:36:19.930Z,23.52
2017-05-31T09:37:21.406Z,23.38
2017-05-31T09:38:22.886Z,23.64
2017-05-31T09:39:24.364Z,23.57
2017-05-31T09:40:25.843Z,24.60
2017-05-31T09:41:27.315Z,25.79
2017-05-31T09:42:28.793Z,26.32
2017-05-31T09:43:30.283Z,26.84
2017-05-31T09:44:31.773Z,26.18
2017-05-31T09:45:33.251Z,25.64
2017-05-31T09:46:34.722Z,25.46
2017-05-31T09:47:36.261Z,25.71
2017-05-31T09:48:37.744Z,25.31
2017-05-31T09:49:39.220Z,25.93
2017-05-31T09:50:40.709Z,26.08
2017-05-31T09:51:42.199Z,26.81
2017-05-31T09:52:43.674Z,26.54
2017-05-31T09:53:45.154Z,26.46
2017-05-31T09:54:46.649Z,27.04
2017-05-31T09:55:48.139Z,27.39
2017-05-31T09:56:49.628Z,26.36
2017-05-31T09:57:51.108Z,25.47
2017-05-31T09:58:52.586Z,26.31
2017-05-31T09:59:54.055Z,26.47
2017-05-31T10:00:55.529Z,27.13
2017-05-31T10:01:57.006Z,27.66
2017-05-31T10:02:58.483Z,26.98
2017-05-31T10:03:59.973Z,26.42
2017-05-31T10:05:01.458Z,26.46
2017-05-31T10:06:04.862Z,26.52
2017-05-31T10:07:05.651Z,26.59
2017-05-31T10:08:07.130Z,25.62
2017-05-31T10:09:08.643Z,25.97
2017-05-31T10:10:10.083Z,26.99
2017-05-31T10:11:11.565Z,27.01
2017-05-31T10:12:13.044Z,26.59
2017-05-31T10:13:14.541Z,25.99
2017-05-31T10:14:16.034Z,25.69
2017-05-31T10:15:17.522Z,25.28
2017-05-31T10:16:19.002Z,24.85
2017-05-31T10:17:20.475Z,24.83
2017-05-31T10:18:21.953Z,24.77
2017-05-31T10:19:23.432Z,24.29
2017-05-31T10:20:24.903Z,24.34
2017-05-31T10:21:26.378Z,24.56
2017-05-31T10:22:27.861Z,24.77
2017-05-31T10:23:29.356Z,24.53
2017-05-31T10:24:30.845Z,24.68
2017-05-31T10:25:32.329Z,24.47
2017-05-31T10:26:33.819Z,25.15
2017-05-31T10:27:35.292Z,25.74
2017-05-31T10:28:36.768Z,25.31
2017-05-31T10:29:38.258Z,25.24
2017-05-31T10:30:39.739Z,25.22
2017-05-31T10:31:41.212Z,24.95
2017-05-31T10:32:42.707Z,25.89
2017-05-31T10:33:44.187Z,26.72
2017-05-31T10:34:45.682Z,27.48
2017-05-31T10:35:47.156Z,27.70
2017-05-31T10:36:48.629Z,28.23
2017-05-31T10:37:50.109Z,28.58
2017-05-31T10:38:51.581Z,28.43
2017-05-31T10:39:53.067Z,28.62
2017-05-31T10:40:54.555Z,28.33
2017-05-31T10:41:56.047Z,29.66
2017-05-31T10:42:57.527Z,29.55
2017-05-31T10:43:59.014Z,30.29
2017-05-31T10:45:00.493Z,29.60
2017-05-31T10:46:01.976Z,29.00
2017-05-31T10:47:03.463Z,29.06
2017-05-31T10:48:04.943Z,29.66
2017-05-31T10:49:06.433Z,29.07
2017-05-31T10:50:07.906Z,28.44
2017-05-31T10:51:09.400Z,27.84
2017-05-31T10:52:10.877Z,26.84
2017-05-31T10:53:12.360Z,26.52
2017-05-31T10:54:13.842Z,25.84
2017-05-31T10:55:15.320Z,25.42
2017-05-31T10:56:16.911Z,24.53
2017-05-31T10:57:18.386Z,24.04
2017-05-31T10:58:19.867Z,24.00
2017-05-31T10:59:21.339Z,24.10
2017-05-31T11:00:22.842Z,23.87
2017-05-31T11:01:24.330Z,23.85
2017-05-31T11:02:25.799Z,24.10
2017-05-31T11:03:27.278Z,23.87
2017-05-31T11:04:28.754Z,23.85
2017-05-31T11:05:30.233Z,23.82
2017-05-31T11:06:31.711Z,23.65
2017-05-31T11:07:33.183Z,23.89
2017-05-31T11:08:34.672Z,23.90
2017-05-31T11:09:36.155Z,24.16
2017-05-31T11:10:37.629Z,24.47
2017-05-31T11:11:39.114Z,24.92
2017-05-31T11:12:40.594Z,25.35
2017-05-31T11:13:42.128Z,26.02
2017-05-31T11:14:43.618Z,26.35
2017-05-31T11:15:45.122Z,26.99
2017-05-31T11:16:46.595Z,27.57
2017-05-31T11:17:48.125Z,28.23
2017-05-31T11:18:49.604Z,28.25
2017-05-31T11:19:51.098Z,28.11
2017-05-31T11:20:52.589Z,28.23
2017-05-31T11:21:54.071Z,27.82
2017-05-31T11:22:55.560Z,28.11
2017-05-31T11:23:57.038Z,27.79
2017-05-31T11:24:58.529Z,28.65
2017-05-31T11:26:00.005Z,28.66
2017-05-31T11:27:01.486Z,28.60
2017-05-31T11:28:02.990Z,28.63
2017-05-31T11:29:04.469Z,29.11
2017-05-31T11:30:05.954Z,29.47
2017-05-31T11:31:07.525Z,28.82
2017-05-31T11:32:08.987Z,27.39
2017-05-31T11:33:10.466Z,28.19
2017-05-31T11:34:11.940Z,28.46
2017-05-31T11:35:13.442Z,28.46
2017-05-31T11:36:14.957Z,29.43
2017-05-31T11:37:16.476Z,29.57
2017-05-31T11:38:17.954Z,29.90
2017-05-31T11:39:19.464Z,30.53
2017-05-31T11:40:20.948Z,28.65
2017-05-31T11:41:22.431Z,28.53
2017-05-31T11:42:23.914Z,28.29
2017-05-31T11:43:25.404Z,29.82
2017-05-31T11:44:26.883Z,30.40
2017-05-31T11:45:28.362Z,30.57
2017-05-31T11:46:29.850Z,31.30
2017-05-31T11:47:31.328Z,31.49
2017-05-31T11:48:32.810Z,30.83
2017-05-31T11:49:34.293Z,28.78
2017-05-31T11:50:35.780Z,28.82
2017-05-31T11:51:37.261Z,28.28
2017-05-31T11:52:38.750Z,27.59
2017-05-31T11:53:40.238Z,27.57
2017-05-31T11:54:41.734Z,27.24
2017-05-31T11:55:43.212Z,27.29
2017-05-31T11:56:44.733Z,27.26
2017-05-31T11:57:46.205Z,27.47
2017-05-31T11:58:47.691Z,27.39
2017-05-31T11:59:49.180Z,28.01
2017-05-31T12:00:50.660Z,29.07
2017-05-31T12:01:52.144Z,29.96
2017-05-31T12:02:53.646Z,29.55
2017-05-31T12:03:55.131Z,29.43
2017-05-31T12:04:56.610Z,29.29
2017-05-31T12:05:58.081Z,28.87
2017-05-31T12:06:59.574Z,28.58
2017-05-31T12:08:01.052Z,28.36
2017-05-31T12:09:02.529Z,28.13
2017-05-31T12:10:04.000Z,27.79
2017-05-31T12:11:05.477Z,27.35
2017-05-31T12:12:06.967Z,27.24
2017-05-31T12:13:08.441Z,26.80
2017-05-31T12:14:09.917Z,26.58
2017-05-31T12:15:11.394Z,25.80
2017-05-31T12:16:12.878Z,25.47
2017-05-31T12:17:14.349Z,25.34
2017-05-31T12:18:15.826Z,25.17
2017-05-31T12:19:17.294Z,24.91
2017-05-31T12:20:18.770Z,24.60
2017-05-31T12:21:20.240Z,24.26
2017-05-31T12:22:21.744Z,24.32
2017-05-31T12:23:23.214Z,24.39
2017-05-31T12:24:24.687Z,24.16
2017-05-31T12:25:26.159Z,24.02
2017-05-31T12:26:27.633Z,23.85
2017-05-31T12:27:29.113Z,23.67
2017-05-31T12:28:30.583Z,23.86
2017-05-31T12:29:32.054Z,23.60
2017-05-31T12:30:33.526Z,23.62
2017-05-31T12:31:34.995Z,23.55
2017-05-31T12:32:36.469Z,23.27
2017-05-31T12:33:37.936Z,23.32
2017-05-31T12:34:39.403Z,23.23
2017-05-31T12:35:40.868Z,23.05
2017-05-31T12:36:42.335Z,22.97
2017-05-31T12:37:43.803Z,23.05
2017-05-31T12:38:45.280Z,22.75
2017-05-31T12:39:46.749Z,22.62
2017-05-31T12:40:48.223Z,22.65
2017-05-31T12:41:49.693Z,22.64
2017-05-31T12:42:51.158Z,22.60
2017-05-31T12:43:52.626Z,22.56
2017-05-31T12:44:54.096Z,22.59
2017-05-31T12:45:55.569Z,22.35
2017-05-31T12:46:57.038Z,22.46
2017-05-31T12:47:58.511Z,22.28
2017-05-31T12:48:59.979Z,22.32
2017-05-31T12:50:01.448Z,22.14
2017-05-31T12:51:02.928Z,22.14
2017-05-31T12:52:04.392Z,22.12
2017-05-31T12:53:05.849Z,21.97
2017-05-31T12:54:07.319Z,22.16
2017-05-31T12:55:08.793Z,22.19
2017-05-31T12:56:10.268Z,22.19
2017-05-31T12:57:11.734Z,22.14
2017-05-31T12:58:13.203Z,22.12
2017-05-31T12:59:14.668Z,22.02
2017-05-31T13:00:16.134Z,22.01
2017-05-31T13:01:17.603Z,22.13
2017-05-31T13:02:19.076Z,22.16
2017-05-31T13:03:20.570Z,22.22
2017-05-31T13:04:22.033Z,22.23
2017-05-31T13:05:23.513Z,22.19
2017-05-31T13:06:25.051Z,22.31
2017-05-31T13:07:26.519Z,22.28
2017-05-31T13:08:27.989Z,22.52
2017-05-31T13:09:29.456Z,22.60
2017-05-31T13:10:30.927Z,22.67
2017-05-31T13:11:32.386Z,22.59